Terminal Aerodrome Forecast
Issued by NWS Wakefield, VA

Home | Current Version | Previous Version | Text Only | Print | Product List | Glossary On
Versions: 1 2 3 4 5 6 7 8 9 10 11 12 13 14 15 16 17 18 19 20
000
FTUS41 KAKQ 261700 RRA
TAFSBY
TAF
KSBY 261746Z 2618/2718 04014KT P6SM -RA BKN007 OVC015
     FM262100 03014G21KT 2SM -RA BR OVC007
     FM270300 36015G25KT 2SM -RASN BR OVC007
     FM270600 35014G22KT 1SM -SN BR OVC005
     FM271200 32013G21KT 4SM -SN BR OVC015=

USA.gov is the U.S. government's official web portal to all federal, state and local government web resources and services.